Time;durP1;ratioP1;P1;durP2;ratioP2;P2;SDS_P1;SDS_P2;PMS_P1;PMS_P2;Temp;Humidity;BMP_temperature;BMP_pressure;BME280_temperature;BME280_humidity;BME280_pressure;Samples;Min_cycle;Max_cycle;Signal;HPM_P1;HPM_P2
2023/06/26 00:01:30;;;;;;;11.27;6.78;;;;;;;22.67;77.64;100305.69;8284143;28;20413;-61
2023/06/26 00:05:32;;;;;;;9.82;7.53;;;;;;;22.50;78.74;100294.34;8272713;28;20042;-60
2023/06/26 00:09:33;;;;;;;8.70;7.35;;;;;;;22.41;79.76;100290.16;8274563;28;20042;-60
2023/06/26 00:13:33;;;;;;;9.32;7.80;;;;;;;22.26;80.12;100292.38;8274075;28;20129;-60
2023/06/26 00:17:36;;;;;;;8.98;6.90;;;;;;;22.10;80.67;100298.41;8273198;28;20500;-60
2023/06/26 00:21:37;;;;;;;9.13;7.30;;;;;;;21.91;81.40;100288.34;8271955;28;20038;-60
2023/06/26 00:25:37;;;;;;;11.13;8.27;;;;;;;21.85;82.62;100296.63;8271928;28;20505;-59
2023/06/26 00:29:38;;;;;;;10.18;7.68;;;;;;;21.84;82.03;100301.28;8273233;28;20345;-60
2023/06/26 00:33:38;;;;;;;10.27;7.55;;;;;;;21.85;81.83;100297.47;8273630;28;20072;-60
2023/06/26 00:37:39;;;;;;;10.90;8.40;;;;;;;21.83;81.42;100285.81;8274601;28;20044;-60
2023/06/26 00:41:39;;;;;;;12.68;7.15;;;;;;;21.88;81.27;100286.03;8272404;28;20054;-60
2023/06/26 00:45:40;;;;;;;9.70;6.97;;;;;;;21.84;81.96;100294.94;8274050;28;20092;-60
2023/06/26 00:49:40;;;;;;;7.70;6.78;;;;;;;21.84;81.50;100298.53;8287384;28;20053;-60
2023/06/26 00:53:42;;;;;;;9.52;7.68;;;;;;;21.80;82.61;100286.25;8271260;28;20404;-60
2023/06/26 00:57:45;;;;;;;9.85;8.02;;;;;;;21.67;82.61;100286.28;8271359;28;20038;-60
2023/06/26 01:01:46;;;;;;;9.10;7.35;;;;;;;21.60;82.50;100285.47;8268560;28;20042;-60
2023/06/26 01:05:49;;;;;;;10.05;7.90;;;;;;;21.47;82.35;100274.50;8266125;28;20102;-60
2023/06/26 01:09:51;;;;;;;10.38;7.93;;;;;;;21.31;83.59;100273.06;8273926;28;20088;-60
2023/06/26 01:13:53;;;;;;;10.85;8.30;;;;;;;21.39;83.25;100272.00;8269493;28;20547;-60
2023/06/26 01:18:03;;;;;;;10.35;7.60;;;;;;;21.24;83.64;100269.50;8272044;28;20497;-60
2023/06/26 01:22:19;;;;;;;9.48;8.05;;;;;;;21.23;84.22;100266.97;8268463;28;20046;-60
2023/06/26 01:26:21;;;;;;;9.80;7.78;;;;;;;21.17;84.64;100271.41;8264853;28;20300;-60
2023/06/26 01:30:22;;;;;;;10.77;7.68;;;;;;;21.13;85.10;100272.06;8268953;28;20035;-60
2023/06/26 01:34:23;;;;;;;9.88;7.20;;;;;;;21.03;85.79;100260.66;8270407;28;20038;-60
2023/06/26 01:38:25;;;;;;;9.07;7.25;;;;;;;21.21;85.17;100274.59;8269535;28;20043;-62
2023/06/26 01:42:27;;;;;;;10.93;7.90;;;;;;;21.04;85.16;100267.84;8272130;28;20053;-62
2023/06/26 01:46:54;;;;;;;11.38;7.75;;;;;;;20.81;87.26;100273.78;8266999;28;20133;-62
2023/06/26 01:50:58;;;;;;;8.88;7.53;;;;;;;20.79;86.78;100269.53;8269429;28;20038;-62
2023/06/26 01:55:28;;;;;;;10.38;7.25;;;;;;;20.81;87.25;100275.66;8270150;28;20126;-61
2023/06/26 01:59:31;;;;;;;7.90;7.03;;;;;;;20.84;86.88;100283.50;8269897;28;20037;-62
2023/06/26 02:03:32;;;;;;;11.18;7.45;;;;;;;20.87;87.08;100277.56;8270241;28;20053;-61
2023/06/26 02:07:34;;;;;;;14.48;8.38;;;;;;;20.82;87.16;100280.94;8272052;28;20042;-61
2023/06/26 02:11:37;;;;;;;11.48;8.27;;;;;;;20.94;86.70;100282.03;8267977;28;20053;-60
2023/06/26 02:15:37;;;;;;;9.70;7.28;;;;;;;20.98;86.58;100290.72;8271280;28;20042;-60
2023/06/26 02:19:47;;;;;;;9.10;7.70;;;;;;;20.56;89.39;100278.19;8268388;28;20038;-60
2023/06/26 02:23:47;;;;;;;10.55;7.88;;;;;;;20.60;91.90;100290.47;8269055;28;20039;-60
2023/06/26 02:27:47;;;;;;;10.68;8.23;;;;;;;20.58;88.96;100294.47;8270809;28;20054;-60
2023/06/26 02:31:48;;;;;;;14.27;7.80;;;;;;;20.69;88.10;100293.84;8271478;28;20046;-59
2023/06/26 02:35:50;;;;;;;10.43;7.88;;;;;;;20.73;88.39;100309.69;8278764;28;20038;-60
2023/06/26 02:39:51;;;;;;;10.48;7.38;;;;;;;20.67;88.94;100309.69;8276671;28;20508;-60
2023/06/26 02:43:51;;;;;;;7.65;6.80;;;;;;;21.04;86.78;100314.56;8278436;28;20048;-60
2023/06/26 02:47:52;;;;;;;9.50;6.22;;;;;;;20.96;87.38;100314.81;8278632;28;20058;-63
2023/06/26 02:51:54;;;;;;;13.60;7.63;;;;;;;20.58;89.46;100327.44;8275801;28;20117;-60
2023/06/26 02:55:59;;;;;;;11.10;7.75;;;;;;;20.53;89.46;100324.47;8276129;28;20042;-61
2023/06/26 03:00:00;;;;;;;9.95;7.35;;;;;;;20.45;91.16;100332.91;8277101;28;20089;-61
2023/06/26 03:04:02;;;;;;;12.98;6.63;;;;;;;19.95;94.32;100330.63;8281615;28;20038;-61
2023/06/26 03:08:03;;;;;;;9.35;7.40;;;;;;;20.21;92.53;100330.75;8276433;28;20082;-61
2023/06/26 03:12:04;;;;;;;10.48;6.88;;;;;;;20.43;91.29;100335.03;8276874;28;20128;-61
2023/06/26 03:16:06;;;;;;;17.10;7.38;;;;;;;20.52;91.21;100334.63;8275503;28;20497;-60
2023/06/26 03:20:07;;;;;;;8.40;6.57;;;;;;;20.80;90.19;100342.69;8270518;28;20404;-60
2023/06/26 03:24:17;;;;;;;11.18;7.50;;;;;;;21.16;87.72;100348.63;8273680;28;20046;-60
2023/06/26 03:28:17;;;;;;;13.82;6.97;;;;;;;21.27;88.63;100339.72;8276666;28;20546;-60
2023/06/26 03:32:18;;;;;;;11.55;6.50;;;;;;;21.79;87.99;100333.28;8275738;28;20045;-61
2023/06/26 03:36:18;;;;;;;11.68;6.57;;;;;;;22.45;84.10;100340.97;8276625;28;20050;-60
2023/06/26 03:40:19;;;;;;;11.82;6.82;;;;;;;22.72;82.81;100336.19;8277968;28;20041;-60
2023/06/26 03:44:22;;;;;;;11.00;6.60;;;;;;;22.64;83.77;100334.53;8273513;28;20049;-60
2023/06/26 03:48:24;;;;;;;14.43;6.95;;;;;;;22.64;83.97;100340.06;8264451;28;20080;-63
2023/06/26 03:52:24;;;;;;;10.20;6.85;;;;;;;22.75;82.96;100344.00;8282806;28;20508;-63
2023/06/26 03:56:25;;;;;;;11.68;6.85;;;;;;;22.92;81.70;100340.47;8273694;28;20104;-63
2023/06/26 04:00:25;;;;;;;10.18;6.38;;;;;;;23.00;80.97;100351.22;8273015;28;20045;-63
2023/06/26 04:04:37;;;;;;;11.05;6.20;;;;;;;22.96;81.48;100352.72;8386698;27;20515;-62
2023/06/26 04:08:38;;;;;;;9.60;6.18;;;;;;;22.95;80.55;100364.84;8386861;28;20032;-62
2023/06/26 04:12:39;;;;;;;7.35;6.18;;;;;;;23.01;80.42;100368.59;8390440;28;20402;-62
2023/06/26 04:16:40;;;;;;;8.10;5.30;;;;;;;23.07;80.24;100381.50;8384778;28;20063;-63
2023/06/26 04:21:08;;;;;;;8.35;6.25;;;;;;;23.16;81.00;100381.00;8380754;28;20279;-63
2023/06/26 04:25:11;;;;;;;12.13;6.70;;;;;;;23.18;80.85;100387.13;8379151;28;20419;-62
2023/06/26 04:29:12;;;;;;;8.18;5.35;;;;;;;23.19;78.77;100399.00;8384846;28;20040;-63
2023/06/26 04:33:12;;;;;;;8.60;5.63;;;;;;;23.20;78.96;100401.53;8379826;28;20067;-62
2023/06/26 04:37:15;;;;;;;10.35;5.97;;;;;;;23.36;77.27;100407.59;8384436;28;20079;-62
2023/06/26 04:41:16;;;;;;;12.90;5.57;;;;;;;23.40;76.76;100406.06;8389560;28;20037;-62
2023/06/26 04:45:17;;;;;;;6.85;5.10;;;;;;;23.37;76.20;100406.53;8380871;28;20062;-62
2023/06/26 04:49:18;;;;;;;9.50;4.93;;;;;;;23.36;75.48;100415.88;8371943;28;20047;-60
2023/06/26 04:53:21;;;;;;;7.70;5.57;;;;;;;23.35;74.25;100423.31;8381673;28;20561;-60
2023/06/26 04:57:21;;;;;;;9.75;4.75;;;;;;;23.32;75.46;100428.47;8385009;28;20040;-60
2023/06/26 05:01:22;;;;;;;6.28;4.43;;;;;;;23.15;76.06;100431.72;8383564;28;20067;-60
2023/06/26 05:05:22;;;;;;;7.80;4.80;;;;;;;23.15;77.17;100430.88;8403043;28;20123;-60
2023/06/26 05:09:23;;;;;;;11.52;5.78;;;;;;;23.16;76.65;100433.41;8379683;28;20056;-60
2023/06/26 05:13:24;;;;;;;8.32;4.90;;;;;;;23.32;76.03;100442.25;8374197;28;20036;-60
2023/06/26 05:17:24;;;;;;;10.77;4.22;;;;;;;23.34;76.63;100448.38;8356401;28;20572;-60
2023/06/26 05:21:25;;;;;;;9.73;4.45;;;;;;;23.37;77.49;100434.97;8359357;28;20419;-60
2023/06/26 05:25:26;;;;;;;10.57;5.03;;;;;;;23.44;77.17;100445.94;8360425;28;20073;-60
2023/06/26 05:29:27;;;;;;;9.90;4.82;;;;;;;23.61;77.63;100449.84;8357529;28;20583;-59
2023/06/26 05:33:28;;;;;;;10.93;4.75;;;;;;;23.71;76.62;100452.91;8352430;28;20458;-60
2023/06/26 05:37:30;;;;;;;8.50;5.18;;;;;;;23.79;75.80;100449.88;8356276;28;20049;-60
2023/06/26 05:41:31;;;;;;;10.50;4.65;;;;;;;23.81;75.81;100465.13;8356512;28;20049;-60
2023/06/26 05:45:31;;;;;;;9.00;3.88;;;;;;;23.70;75.17;100470.56;8353226;28;20044;-60
2023/06/26 05:49:33;;;;;;;8.40;3.85;;;;;;;23.69;75.73;100478.00;8351045;28;20041;-60
2023/06/26 05:53:34;;;;;;;8.20;3.63;;;;;;;23.46;76.59;100487.97;8365835;28;20483;-60
2023/06/26 05:57:36;;;;;;;11.60;4.10;;;;;;;23.29;77.36;100497.88;8359085;28;20458;-60
2023/06/26 06:01:37;;;;;;;10.50;4.25;;;;;;;23.32;77.47;100497.44;8358306;28;20131;-60
2023/06/26 06:05:37;;;;;;;8.93;3.95;;;;;;;23.21;78.00;100497.03;8365075;28;20047;-60
2023/06/26 06:09:38;;;;;;;10.40;3.95;;;;;;;23.28;78.48;100496.16;8357064;28;20040;-60
2023/06/26 06:13:39;;;;;;;7.38;3.58;;;;;;;23.14;79.36;100490.72;8356019;28;20666;-60
2023/06/26 06:17:39;;;;;;;13.77;4.05;;;;;;;23.19;79.46;100501.94;8356044;28;20037;-60
2023/06/26 06:21:40;;;;;;;11.43;4.65;;;;;;;23.03;80.03;100499.69;8356884;28;20055;-59
2023/06/26 06:25:40;;;;;;;11.25;4.63;;;;;;;23.04;80.70;100506.91;8358121;28;20040;-60
2023/06/26 06:29:41;;;;;;;10.82;4.68;;;;;;;22.91;81.27;100500.63;8355616;28;20407;-60
2023/06/26 06:33:41;;;;;;;13.80;4.75;;;;;;;22.64;82.48;100516.47;8353953;28;20551;-60
2023/06/26 06:37:42;;;;;;;11.77;4.70;;;;;;;22.89;83.74;100520.16;8353418;28;20041;-60
2023/06/26 06:41:42;;;;;;;13.55;5.00;;;;;;;23.76;80.60;100527.66;8356282;28;20569;-60
2023/06/26 06:45:43;;;;;;;13.23;4.80;;;;;;;24.15;78.48;100539.19;8359706;28;20492;-60
2023/06/26 06:49:43;;;;;;;13.48;4.80;;;;;;;24.06;78.08;100545.25;8351364;28;20103;-60
2023/06/26 06:53:43;;;;;;;14.50;4.70;;;;;;;23.74;78.56;100551.88;8355865;28;20558;-60
2023/06/26 06:57:44;;;;;;;15.57;4.85;;;;;;;23.68;79.35;100561.03;8353715;28;20336;-60
2023/06/26 07:01:45;;;;;;;16.27;4.57;;;;;;;23.73;80.26;100566.75;8357358;28;20450;-60
2023/06/26 07:05:45;;;;;;;11.88;5.57;;;;;;;23.66;79.48;100579.78;8354500;28;20127;-60
2023/06/26 07:09:45;;;;;;;13.85;5.00;;;;;;;23.69;79.03;100579.31;8352528;28;20033;-60
2023/06/26 07:13:46;;;;;;;15.27;6.63;;;;;;;23.70;78.78;100581.00;8353581;28;20041;-60
2023/06/26 07:17:47;;;;;;;17.77;6.72;;;;;;;23.78;79.11;100591.78;8353892;28;20037;-60
2023/06/26 07:21:47;;;;;;;16.85;5.70;;;;;;;23.69;78.23;100582.09;8353192;28;20037;-59
2023/06/26 07:25:47;;;;;;;19.38;6.05;;;;;;;23.96;77.52;100575.28;8358250;28;20525;-59
2023/06/26 07:29:48;;;;;;;16.77;5.55;;;;;;;24.52;76.63;100574.06;8384180;28;20411;-60
2023/06/26 07:33:48;;;;;;;10.85;5.30;;;;;;;24.70;74.20;100573.28;8386156;28;20043;-60
2023/06/26 07:37:49;;;;;;;15.90;5.45;;;;;;;24.93;72.89;100560.44;8386451;28;20040;-60
2023/06/26 07:41:49;;;;;;;13.50;5.05;;;;;;;25.33;72.05;100555.22;8386142;28;20114;-59
2023/06/26 07:45:51;;;;;;;8.10;4.50;;;;;;;25.33;72.06;100563.53;8386581;28;20032;-60
2023/06/26 07:49:51;;;;;;;10.10;4.70;;;;;;;25.42;71.43;100570.41;8385693;28;20041;-60
2023/06/26 07:53:52;;;;;;;12.07;4.43;;;;;;;25.56;72.14;100588.53;8386702;28;20043;-60
2023/06/26 07:57:52;;;;;;;14.20;4.18;;;;;;;25.49;71.76;100587.78;8384923;28;20040;-59
2023/06/26 08:01:54;;;;;;;11.75;4.25;;;;;;;25.79;70.13;100588.59;8385136;28;20049;-59
2023/06/26 08:05:57;;;;;;;16.23;4.60;;;;;;;25.83;71.33;100589.78;8386030;28;20037;-59
2023/06/26 08:09:57;;;;;;;13.88;4.40;;;;;;;25.81;70.11;100596.66;8386095;28;20518;-60
2023/06/26 08:13:58;;;;;;;9.73;3.77;;;;;;;25.78;70.37;100603.53;8384507;28;20407;-60
2023/06/26 08:17:58;;;;;;;15.20;3.88;;;;;;;25.88;70.54;100614.00;8352486;28;20284;-60
2023/06/26 08:21:59;;;;;;;10.80;3.38;;;;;;;26.18;70.23;100601.81;8359321;28;20052;-60
2023/06/26 08:25:59;;;;;;;14.25;4.03;;;;;;;26.48;68.83;100605.31;8356579;28;20407;-60
2023/06/26 08:30:00;;;;;;;10.55;3.50;;;;;;;26.39;68.44;100604.00;8352668;28;20535;-62
2023/06/26 08:34:03;;;;;;;12.18;4.45;;;;;;;26.10;70.13;100604.94;8355777;28;20091;-61
2023/06/26 08:38:03;;;;;;;16.55;4.68;;;;;;;26.03;69.22;100617.22;8371640;28;20068;-61
2023/06/26 08:42:04;;;;;;;11.48;3.78;;;;;;;26.22;68.94;100627.09;8360187;28;20563;-62
2023/06/26 08:46:05;;;;;;;8.45;3.75;;;;;;;26.22;68.63;100636.28;8356517;28;20055;-62
2023/06/26 08:50:12;;;;;;;11.98;4.15;;;;;;;26.44;67.98;100642.91;8355847;28;20045;-61
2023/06/26 08:54:17;;;;;;;11.52;3.60;;;;;;;26.41;67.16;100646.19;8357611;28;20033;-61
2023/06/26 08:58:17;;;;;;;9.27;3.45;;;;;;;26.57;68.07;100639.94;8357024;28;20051;-62
2023/06/26 09:02:20;;;;;;;11.45;3.80;;;;;;;26.45;66.67;100636.31;8365849;28;20045;-61
2023/06/26 09:06:21;;;;;;;7.87;3.20;;;;;;;27.18;67.64;100641.31;8353352;28;20048;-62
2023/06/26 09:10:22;;;;;;;12.23;3.70;;;;;;;26.40;67.12;100650.03;8355477;28;20033;-61
2023/06/26 09:14:23;;;;;;;9.82;3.63;;;;;;;27.00;68.54;100641.47;8361951;28;20127;-62
2023/06/26 09:18:24;;;;;;;9.73;2.95;;;;;;;27.00;65.88;100647.00;8357232;28;20086;-62
2023/06/26 09:22:24;;;;;;;8.32;3.55;;;;;;;27.11;63.67;100637.84;8357576;28;20072;-62
2023/06/26 09:26:25;;;;;;;9.20;2.88;;;;;;;27.09;64.54;100634.44;8358007;28;20047;-62
2023/06/26 09:30:26;;;;;;;11.85;2.92;;;;;;;27.09;61.90;100646.41;8357651;28;20037;-61
2023/06/26 09:34:33;;;;;;;11.18;3.60;;;;;;;26.30;63.79;100647.03;8356072;28;20091;-62
2023/06/26 09:38:35;;;;;;;11.52;2.95;;;;;;;26.22;66.50;100650.16;8390301;28;20473;-61
2023/06/26 09:42:36;;;;;;;6.40;2.95;;;;;;;26.54;63.62;100662.59;8389484;28;20509;-61
2023/06/26 09:46:37;;;;;;;9.48;3.10;;;;;;;27.11;65.21;100658.09;8390589;28;20044;-62
2023/06/26 09:50:41;;;;;;;6.35;2.20;;;;;;;27.16;61.35;100662.91;8389350;28;20613;-61
2023/06/26 09:54:46;;;;;;;6.65;1.88;;;;;;;27.22;60.33;100667.47;8389776;28;20059;-62
2023/06/26 09:58:47;;;;;;;10.00;2.58;;;;;;;27.31;61.55;100671.59;8389508;28;20044;-62
2023/06/26 10:02:47;;;;;;;7.55;2.67;;;;;;;28.12;59.32;100674.91;8388766;28;20036;-62
2023/06/26 10:06:51;;;;;;;9.25;2.47;;;;;;;28.82;56.76;100681.66;8388899;28;20041;-62
2023/06/26 10:10:52;;;;;;;9.15;2.45;;;;;;;30.03;55.61;100679.34;8387626;28;20045;-62
2023/06/26 10:14:55;;;;;;;8.90;2.20;;;;;;;29.94;53.31;100686.50;8385213;28;20449;-60
2023/06/26 10:19:06;;;;;;;4.93;2.13;;;;;;;30.38;54.30;100687.25;8388147;28;20135;-60
2023/06/26 10:23:08;;;;;;;7.38;2.00;;;;;;;30.32;52.07;100694.72;8351935;28;20434;-60
2023/06/26 10:27:17;;;;;;;8.35;2.50;;;;;;;30.68;51.65;100697.81;8364001;28;20040;-60
2023/06/26 10:31:21;;;;;;;12.25;2.65;;;;;;;31.06;51.16;100701.19;8354870;28;20041;-60
2023/06/26 10:35:22;;;;;;;7.10;1.77;;;;;;;29.45;55.73;100695.06;8354076;28;20123;-60
2023/06/26 10:39:22;;;;;;;7.00;2.22;;;;;;;30.32;51.01;100697.53;8354014;28;20049;-60
2023/06/26 10:43:29;;;;;;;9.43;2.27;;;;;;;31.77;48.22;100696.75;8354332;28;20532;-60
2023/06/26 10:47:31;;;;;;;5.22;1.95;;;;;;;32.33;48.86;100701.41;8353489;28;20275;-60
2023/06/26 10:51:32;;;;;;;3.28;1.42;;;;;;;33.46;44.41;100706.34;8358949;28;20515;-60
2023/06/26 10:55:32;;;;;;;7.70;1.80;;;;;;;33.68;46.03;100686.34;8354026;28;20110;-59
2023/06/26 10:59:33;;;;;;;7.47;1.60;;;;;;;33.53;45.37;100695.66;8354013;28;20033;-60
2023/06/26 11:03:37;;;;;;;10.63;2.30;;;;;;;32.75;47.02;100699.16;8349871;28;20077;-60
2023/06/26 11:08:06;;;;;;;7.05;2.05;;;;;;;33.00;45.98;100690.78;8361706;28;20029;-63
2023/06/26 11:12:07;;;;;;;5.15;1.60;;;;;;;30.75;47.08;100704.88;8350709;28;20096;-63
2023/06/26 11:16:07;;;;;;;12.02;3.25;;;;;;;28.00;53.54;100710.28;8353958;28;20041;-63
2023/06/26 11:20:10;;;;;;;8.75;1.50;;;;;;;31.01;50.86;100703.09;8351675;28;20068;-63
2023/06/26 11:24:12;;;;;;;6.28;1.38;;;;;;;31.96;46.98;100706.38;8354834;28;20052;-63
2023/06/26 11:28:12;;;;;;;8.68;1.90;;;;;;;32.81;45.32;100720.44;8351442;28;20307;-63
2023/06/26 11:32:13;;;;;;;5.77;1.67;;;;;;;31.44;46.71;100717.59;8365020;28;20040;-63
2023/06/26 11:36:13;;;;;;;6.40;1.60;;;;;;;33.07;44.96;100712.88;8356772;28;20302;-60
2023/06/26 11:40:18;;;;;;;8.33;2.20;;;;;;;33.25;46.49;100715.94;8361345;28;20033;-60
2023/06/26 11:44:21;;;;;;;6.95;1.75;;;;;;;33.16;43.87;100709.22;8352782;28;20770;-60
2023/06/26 11:48:21;;;;;;;5.30;1.50;;;;;;;33.30;44.86;100721.50;8352005;28;20491;-60
2023/06/26 11:52:22;;;;;;;6.82;1.70;;;;;;;33.09;43.15;100710.66;8352741;28;20449;-59
2023/06/26 11:56:22;;;;;;;6.15;1.40;;;;;;;32.00;45.66;100724.28;8350201;28;20041;-60
2023/06/26 12:00:23;;;;;;;9.85;2.08;;;;;;;31.37;47.72;100713.38;8351700;28;20657;-60
2023/06/26 12:04:24;;;;;;;6.15;2.20;;;;;;;29.96;49.24;100720.56;8351384;28;20074;-60
2023/06/26 12:08:25;;;;;;;14.85;2.67;;;;;;;28.77;51.08;100726.13;8365221;28;20044;-60
2023/06/26 12:12:26;;;;;;;11.10;2.72;;;;;;;28.07;52.11;100735.97;8352229;28;20110;-60
2023/06/26 12:16:29;;;;;;;23.92;2.72;;;;;;;28.17;53.10;100727.81;8361146;28;20049;-60
2023/06/26 12:20:32;;;;;;;16.45;3.08;;;;;;;27.35;52.48;100739.47;8349113;28;20037;-60
2023/06/26 12:24:32;;;;;;;9.02;2.08;;;;;;;27.01;52.72;100738.38;8355625;28;20052;-60
2023/06/26 12:28:36;;;;;;;10.73;1.70;;;;;;;27.13;54.42;100746.69;8359104;28;20036;-59
2023/06/26 12:32:37;;;;;;;;;;;;;;;26.99;53.31;100761.91;8359284;28;20036;-60
2023/06/26 12:36:42;;;;;;;4.53;1.17;;;;;;;27.36;53.14;100747.56;8363191;28;20379;-60
2023/06/26 12:40:46;;;;;;;6.75;1.52;;;;;;;28.22;53.39;100764.06;8360905;28;20033;-60
2023/06/26 12:44:47;;;;;;;3.15;1.00;;;;;;;27.85;49.31;100762.75;8358619;28;20037;-59
2023/06/26 12:48:48;;;;;;;7.40;1.88;;;;;;;27.32;51.43;100767.72;8362535;28;22179;-60
2023/06/26 12:52:49;;;;;;;16.55;1.60;;;;;;;27.06;52.73;100773.75;8360161;28;20033;-60
2023/06/26 12:56:49;;;;;;;5.00;1.10;;;;;;;27.39;50.91;100746.22;8356003;28;20108;-59
2023/06/26 13:00:50;;;;;;;5.07;0.97;;;;;;;27.31;49.35;100744.66;8368421;28;20410;-60
2023/06/26 13:04:50;;;;;;;5.65;1.10;;;;;;;26.86;51.26;100756.63;8358122;28;20272;-60
2023/06/26 13:08:51;;;;;;;9.57;1.52;;;;;;;26.76;52.03;100762.75;8357999;28;20439;-60
2023/06/26 13:12:51;;;;;;;8.48;0.90;;;;;;;27.15;51.94;100755.63;8367518;28;20044;-63
2023/06/26 13:16:51;;;;;;;10.27;1.00;;;;;;;27.31;50.00;100755.75;8358751;28;20052;-64
2023/06/26 13:20:52;;;;;;;9.48;1.48;;;;;;;26.89;51.66;100775.56;8354977;28;20044;-63
2023/06/26 13:24:52;;;;;;;8.90;1.33;;;;;;;27.06;52.40;100793.16;8357319;28;20140;-63
2023/06/26 13:28:53;;;;;;;6.72;1.13;;;;;;;26.84;49.47;100782.66;8355419;28;20412;-63
2023/06/26 13:32:54;;;;;;;11.65;1.23;;;;;;;26.58;49.68;100765.59;8356395;28;20408;-63
2023/06/26 13:36:54;;;;;;;6.18;1.23;;;;;;;26.59;50.06;100790.31;8356007;28;20159;-63
2023/06/26 13:40:56;;;;;;;15.93;1.65;;;;;;;26.35;50.89;100787.75;8359972;28;20072;-63
2023/06/26 13:44:57;;;;;;;9.27;1.48;;;;;;;26.88;51.41;100798.84;8365076;28;20067;-62
2023/06/26 13:48:58;;;;;;;6.43;1.02;;;;;;;27.10;50.67;100786.03;8356623;28;20040;-62
2023/06/26 13:52:58;;;;;;;5.13;1.10;;;;;;;27.35;50.31;100772.81;8356860;28;20033;-62
2023/06/26 13:57:01;;;;;;;5.03;1.40;;;;;;;27.15;47.72;100772.28;8355359;28;20052;-62
2023/06/26 14:01:03;;;;;;;5.28;1.10;;;;;;;26.90;48.14;100775.31;8351592;28;20287;-62
2023/06/26 14:05:04;;;;;;;6.00;1.42;;;;;;;27.03;49.69;100774.22;8354853;28;20075;-62
2023/06/26 14:09:04;;;;;;;3.67;1.35;;;;;;;26.96;49.16;100774.34;8363146;28;20411;-62
2023/06/26 14:13:05;;;;;;;5.55;1.00;;;;;;;27.24;48.48;100765.28;8354932;28;20068;-60
2023/06/26 14:17:05;;;;;;;4.30;1.20;;;;;;;26.86;47.71;100784.38;8355616;28;20040;-60
2023/06/26 14:21:06;;;;;;;2.63;1.13;;;;;;;26.42;50.09;100783.78;8356110;28;20048;-60
2023/06/26 14:25:08;;;;;;;4.93;1.15;;;;;;;26.44;50.73;100792.69;8354540;28;20391;-60
2023/06/26 14:29:09;;;;;;;9.23;1.13;;;;;;;26.33;51.55;100790.75;8355331;28;20041;-61
2023/06/26 14:33:09;;;;;;;16.73;1.70;;;;;;;26.13;51.13;100787.41;8354494;28;20041;-60
2023/06/26 14:37:10;;;;;;;3.45;1.23;;;;;;;26.07;51.08;100785.56;8355052;28;20041;-60
2023/06/26 14:41:11;;;;;;;4.07;1.00;;;;;;;26.35;51.29;100794.09;8353264;28;20119;-60
2023/06/26 14:45:11;;;;;;;6.15;1.63;;;;;;;26.53;51.04;100807.09;8353266;28;20131;-60
2023/06/26 14:49:12;;;;;;;5.70;1.17;;;;;;;26.57;51.91;100792.50;8361865;28;20041;-60
2023/06/26 14:53:13;;;;;;;6.15;1.20;;;;;;;26.83;51.48;100790.41;8353466;28;20037;-60
2023/06/26 14:57:13;;;;;;;3.92;1.50;;;;;;;26.29;50.29;100789.50;8354516;28;20487;-61
2023/06/26 15:01:15;;;;;;;4.37;1.43;;;;;;;26.16;49.50;100795.25;8360247;28;20045;-60
2023/06/26 15:05:16;;;;;;;5.90;1.00;;;;;;;26.13;49.87;100790.19;8353432;28;20650;-60
2023/06/26 15:09:16;;;;;;;5.07;1.00;;;;;;;26.06;50.46;100800.53;8354114;28;20040;-60
2023/06/26 15:13:17;;;;;;;3.85;1.20;;;;;;;25.93;50.00;100800.66;8357405;28;20041;-60
2023/06/26 15:17:17;;;;;;;4.72;1.02;;;;;;;26.10;49.60;100798.97;8361301;28;20033;-61
2023/06/26 15:21:17;;;;;;;3.92;1.45;;;;;;;26.23;49.06;100796.00;8364754;28;20105;-61
2023/06/26 15:25:18;;;;;;;5.57;1.10;;;;;;;26.06;50.30;100800.53;8362090;28;20094;-60
2023/06/26 15:29:18;;;;;;;3.95;0.98;;;;;;;26.08;49.18;100805.81;8357930;28;20041;-60
2023/06/26 15:33:19;;;;;;;7.38;1.35;;;;;;;26.29;50.78;100806.13;8357425;28;20047;-60
2023/06/26 15:37:19;;;;;;;4.40;1.10;;;;;;;26.41;50.17;100804.25;8361410;28;20575;-61
2023/06/26 15:41:20;;;;;;;6.40;1.17;;;;;;;26.31;48.92;100797.59;8352537;28;20064;-61
2023/06/26 15:45:22;;;;;;;2.05;1.05;;;;;;;26.48;51.16;100802.25;8357262;28;20083;-60
2023/06/26 15:49:23;;;;;;;4.75;1.48;;;;;;;26.18;50.32;100804.19;8351767;28;20037;-60
2023/06/26 15:53:39;;;;;;;6.40;1.42;;;;;;;26.02;49.23;100795.69;8354449;28;20529;-60
2023/06/26 15:57:39;;;;;;;10.23;1.30;;;;;;;26.05;50.32;100804.38;8348591;28;20033;-60
2023/06/26 16:01:40;;;;;;;6.68;1.33;;;;;;;25.96;51.61;100802.97;8354018;28;20504;-61
2023/06/26 16:05:41;;;;;;;7.95;1.30;;;;;;;26.02;48.78;100793.75;8352373;28;20032;-60
2023/06/26 16:09:42;;;;;;;4.60;0.90;;;;;;;25.90;48.31;100791.97;8355355;28;20041;-60
2023/06/26 16:13:43;;;;;;;2.58;1.20;;;;;;;25.63;49.06;100807.22;8360820;28;20040;-61
2023/06/26 16:17:43;;;;;;;5.80;1.38;;;;;;;25.53;49.71;100813.31;8353072;28;20041;-61
2023/06/26 16:21:44;;;;;;;4.50;1.10;;;;;;;25.34;51.19;100803.28;8355457;28;20520;-61
2023/06/26 16:25:45;;;;;;;3.13;1.00;;;;;;;25.22;51.62;100805.09;8352965;28;20041;-61
2023/06/26 16:29:46;;;;;;;5.18;0.95;;;;;;;25.28;50.38;100798.63;8360537;28;20511;-60
2023/06/26 16:33:46;;;;;;;4.20;1.27;;;;;;;25.13;49.93;100797.34;8355727;28;20399;-60
2023/06/26 16:37:47;;;;;;;6.00;1.27;;;;;;;25.23;50.15;100798.50;8351705;28;20037;-60
2023/06/26 16:41:53;;;;;;;8.00;1.30;;;;;;;25.21;50.53;100795.09;8347551;28;20049;-61
2023/06/26 16:45:54;;;;;;;4.88;1.02;;;;;;;25.15;52.07;100811.81;8361293;28;20275;-61
2023/06/26 16:49:54;;;;;;;7.70;1.48;;;;;;;24.95;50.99;100812.81;8350661;28;20045;-60
2023/06/26 16:53:54;;;;;;;4.53;1.60;;;;;;;24.83;51.55;100819.31;8352958;28;20044;-61
2023/06/26 16:57:55;;;;;;;5.70;0.87;;;;;;;24.90;51.59;100811.81;8351025;28;20276;-61
2023/06/26 17:02:00;;;;;;;7.18;1.45;;;;;;;24.86;50.74;100819.69;8348730;28;20279;-61
2023/06/26 17:06:00;;;;;;;3.80;1.20;;;;;;;24.88;49.63;100811.16;8345951;28;20128;-61
2023/06/26 17:10:01;;;;;;;4.43;1.53;;;;;;;24.75;50.84;100816.81;8362566;28;20048;-61
2023/06/26 17:14:01;;;;;;;5.97;1.60;;;;;;;24.70;50.68;100819.44;8351265;28;20295;-61
2023/06/26 17:18:02;;;;;;;5.40;1.05;;;;;;;24.63;50.28;100818.59;8356701;28;20037;-61
2023/06/26 17:22:04;;;;;;;5.40;1.50;;;;;;;24.54;51.30;100819.94;8363179;28;20045;-61
2023/06/26 17:26:05;;;;;;;4.75;1.00;;;;;;;24.43;52.55;100829.78;8361798;28;20447;-61
2023/06/26 17:30:06;;;;;;;7.22;1.23;;;;;;;24.41;51.42;100817.25;8357557;28;20056;-61
2023/06/26 17:34:07;;;;;;;9.00;1.42;;;;;;;24.33;52.38;100831.34;8356832;28;20068;-60
2023/06/26 17:38:08;;;;;;;4.03;0.80;;;;;;;24.31;52.75;100836.25;8354996;28;20033;-61
2023/06/26 17:42:08;;;;;;;2.58;1.08;;;;;;;24.18;52.83;100833.59;8364213;28;20053;-60
2023/06/26 17:46:09;;;;;;;4.82;1.42;;;;;;;24.13;52.56;100839.78;8357215;28;20484;-60
2023/06/26 17:50:12;;;;;;;5.03;1.30;;;;;;;24.05;53.04;100841.91;8356669;28;20032;-61
2023/06/26 17:54:12;;;;;;;3.63;1.00;;;;;;;23.91;53.57;100840.28;8364865;28;20048;-61
2023/06/26 17:58:13;;;;;;;3.97;1.10;;;;;;;23.95;54.33;100849.84;8353322;28;20516;-61
2023/06/26 18:02:14;;;;;;;3.45;0.90;;;;;;;23.90;54.27;100855.13;8354355;28;20526;-60
2023/06/26 18:06:14;;;;;;;4.72;0.98;;;;;;;23.81;54.69;100854.53;8355725;28;20029;-61
2023/06/26 18:10:14;;;;;;;3.50;0.90;;;;;;;23.75;55.53;100858.16;8356021;28;20068;-61
2023/06/26 18:14:15;;;;;;;4.20;1.02;;;;;;;23.68;55.92;100864.78;8356077;28;20128;-61
2023/06/26 18:18:16;;;;;;;3.30;1.17;;;;;;;23.68;56.43;100878.56;8356460;28;20057;-61
2023/06/26 18:22:16;;;;;;;5.00;1.00;;;;;;;23.58;57.35;100878.19;8359011;28;20045;-60
2023/06/26 18:26:17;;;;;;;3.05;0.82;;;;;;;23.43;57.54;100896.91;8354640;28;20048;-60
2023/06/26 18:30:18;;;;;;;4.22;1.00;;;;;;;23.30;57.96;100891.41;8359450;28;20063;-61
2023/06/26 18:34:18;;;;;;;2.97;1.20;;;;;;;23.24;57.77;100886.75;8355218;28;20548;-61
2023/06/26 18:38:19;;;;;;;3.83;0.80;;;;;;;23.16;57.49;100885.00;8353969;28;20343;-61